Autoprogress — CQQF — position and weather

sailwx.info

Track history (hours):
 
Tides and Currents Weather Stations Pressure Air Temp Water Temp Dewpoint Dewpoint Depression Visibility Wind Speed Wind Dir Waves Ship Positions

Autoprogress

Last reported at 2017-Sep-26 11:00 UTC. Time now 2017-Sep-26 11:16 UTC.
Position N 50°54' W 001°25'.

Length 125 m; draft 5.6 m.

Type: Cargo ship. MMSI: 255801570.

Date/timePositionNaut miles runAvg speedWind from/ knotsBaromVisibWave heightAir tempDewpointWater temp
2017-Sep-26 11:00N 50°54' W 001°25'0 0.0
2017-Sep-26 10:30N 50°54' W 001°25'0 0.0
2017-Sep-26 10:00N 50°54' W 001°25'0 0.0
2017-Sep-26 09:30N 50°54' W 001°25'0 0.0
2017-Sep-26 09:00N 50°54' W 001°25'1 0.4
2017-Sep-26 05:54N 50°53' W 001°24'0 0.0
2017-Sep-26 05:24N 50°53' W 001°24'0 1.2
2017-Sep-26 05:00N 50°53' W 001°24'3 6.3
2017-Sep-26 04:30N 50°51' W 001°20'510.7
2017-Sep-26 04:00N 50°47' W 001°14'815.2
2017-Sep-26 03:30N 50°44' W 001°03'714.1
2017-Sep-26 03:00N 50°40' W 000°54'612.3
2017-Sep-26 02:30N 50°38' W 000°45'612.5
2017-Sep-26 02:00N 50°37' W 000°35'612.8
2017-Sep-26 01:31N 50°36' W 000°25'612.2
2017-Sep-26 01:00N 50°34' W 000°16'612.5
2017-Sep-26 00:31N 50°33' W 000°06'612.6
2017-Sep-26 00:00N 50°33' E 000°04'612.6
2017-Sep-25 23:31N 50°35' E 000°13'612.3
2017-Sep-25 23:00N 50°36' E 000°23'612.6
2017-Sep-25 22:30N 50°38' E 000°32'612.9
2017-Sep-25 22:00N 50°40' E 000°41'713.7
2017-Sep-25 21:31N 50°44' E 000°50'714.4
2017-Sep-25 21:00N 50°48' E 000°60'714.7
2017-Sep-25 20:30N 50°54' E 001°08'714.7
2017-Sep-25 20:01N 50°59' E 001°16'714.4
2017-Sep-25 19:31N 51°03' E 001°25'714.5
2017-Sep-25 19:00N 51°08' E 001°34'713.6
2017-Sep-25 18:31N 51°12' E 001°43'713.2
2017-Sep-25 18:00N 51°17' E 001°50'612.8
2017-Sep-25 17:31N 51°22' E 001°56'510.7
2017-Sep-25 17:01N 51°24' E 002°04'713.7
2017-Sep-25 16:30N 51°21' E 002°14'612.0
2017-Sep-25 16:00N 51°22' E 002°24'612.5
2017-Sep-25 15:30N 51°23' E 002°33'612.3
2017-Sep-25 15:00N 51°22' E 002°43'713.7
2017-Sep-25 14:31N 51°23' E 002°54'815.2
2017-Sep-25 14:00N 51°24' E 003°06'611.8
2017-Sep-25 13:30N 51°20' E 003°13'0 0.0
2017-Sep-25 13:01N 51°20' E 003°13'0 0.0
2017-Sep-25 12:31N 51°20' E 003°13'1 1.6
2017-Sep-25 12:00N 51°19' E 003°13'0 0.3
2017-Sep-25 11:27N 51°19' E 003°13'0 0.0
2017-Sep-25 11:00N 51°19' E 003°13'0 0.0
2017-Sep-25 10:30N 51°19' E 003°13'0 0.0
2017-Sep-25 10:00N 51°19' E 003°13'0 0.0
2017-Sep-25 09:30N 51°19' E 003°13'0 0.0
2017-Sep-25 09:00N 51°19' E 003°13'0 0.0
2017-Sep-25 08:30N 51°19' E 003°13'0 0.0
2017-Sep-25 08:00N 51°19' E 003°13'0 0.0
2017-Sep-25 07:30N 51°19' E 003°13'0 0.0
2017-Sep-25 07:00N 51°19' E 003°13'0 0.0
2017-Sep-25 06:30N 51°19' E 003°13'0 0.0
2017-Sep-25 06:00N 51°19' E 003°13'0 0.0
2017-Sep-25 05:30N 51°19' E 003°13'0 0.0
2017-Sep-25 05:00N 51°19' E 003°13'0 0.0
2017-Sep-25 04:30N 51°19' E 003°13'0 0.0
2017-Sep-25 04:00N 51°19' E 003°13'0 0.0
2017-Sep-25 03:30N 51°19' E 003°13'0 0.0
2017-Sep-25 03:00N 51°19' E 003°13'1 1.0
2017-Sep-25 02:30N 51°19' E 003°13'1 2.0
2017-Sep-25 02:00N 51°20' E 003°13'1 1.6
2017-Sep-25 01:30N 51°21' E 003°12'713.3
2017-Sep-25 01:00N 51°24' E 003°03'816.1
2017-Sep-25 00:30N 51°22' E 002°51'611.3
2017-Sep-25 00:00N 51°22' E 002°42'815.8
2017-Sep-24 23:30N 51°21' E 002°29'815.1
2017-Sep-24 23:00N 51°18' E 002°18'611.6
2017-Sep-24 22:30N 51°15' E 002°10'611.5
2017-Sep-24 22:00N 51°12' E 002°02'611.4
2017-Sep-24 21:30N 51°09' E 001°54'611.3
2017-Sep-24 21:00N 51°06' E 001°47'611.2
2017-Sep-24 20:30N 51°02' E 001°41'510.1
2017-Sep-24 20:00N 50°58' E 001°35'611.5
2017-Sep-24 19:30N 50°54' E 001°30'612.3
2017-Sep-24 19:00N 50°48' E 001°26'612.7
2017-Sep-24 18:29N 50°42' E 001°22'612.5
2017-Sep-24 18:00N 50°38' E 001°15'712.9
2017-Sep-24 17:29N 50°34' E 001°07'612.9
2017-Sep-24 16:59N 50°31' E 000°58'612.6
2017-Sep-24 16:29N 50°29' E 000°49'612.6
2017-Sep-24 16:00N 50°27' E 000°39'612.5
2017-Sep-24 15:30N 50°25' E 000°30'612.5
2017-Sep-24 15:00N 50°23' E 000°21'612.6
2017-Sep-24 14:30N 50°21' E 000°12'612.7
2017-Sep-24 14:00N 50°19' E 000°02'10915.2
2017-Sep-24 06:50N 49°49' W 002°41'614.2
2017-Sep-24 06:26N 49°48' W 002°49'912.8
2017-Sep-24 05:46N 49°45' W 003°01'413.1
2017-Sep-24 05:29N 49°43' W 003°06'1012.9
2017-Sep-24 04:43N 49°37' W 003°19'312.9
2017-Sep-24 04:29N 49°36' W 003°23'812.7
2017-Sep-24 03:52N 49°32' W 003°34'512.5
2017-Sep-24 03:28N 49°30' W 003°41'612.4
2017-Sep-24 03:00N 49°26' W 003°48'3911.9
2017-Sep-23 23:42N 49°07' W 004°40'511.6
2017-Sep-23 23:18N 49°05' W 004°46'1111.9
2017-Sep-23 22:24N 48°59' W 005°01'712.2
2017-Sep-23 21:48N 48°56' W 005°10'412.9
2017-Sep-23 21:29N 48°54' W 005°16'713.2
2017-Sep-23 20:59N 48°50' W 005°24'713.3
2017-Sep-23 20:26N 48°46' W 005°34'  
2017-Sep-21 12:45N 47°30' W 005°03'514.8
2017-Sep-21 12:26N 47°34' W 005°06'613.9
2017-Sep-21 12:00N 47°39' W 005°10'10510.9
2017-Sep-21 02:23N 49°22' W 004°34'613.0
2017-Sep-21 01:57N 49°24' W 004°27'613.7
2017-Sep-21 01:30N 49°27' W 004°19'714.3
2017-Sep-21 01:00N 49°31' W 004°09'714.8
2017-Sep-21 00:31N 49°35' W 003°60'815.0
2017-Sep-21 00:00N 49°39' W 003°50'715.0
2017-Sep-20 23:31N 49°42' W 003°39'714.6
2017-Sep-20 23:01N 49°46' W 003°29'714.3
2017-Sep-20 22:31N 49°49' W 003°20'713.7
2017-Sep-20 22:00N 49°53' W 003°11'713.1
2017-Sep-20 21:30N 49°56' W 003°01'612.4
2017-Sep-20 21:00N 49°58' W 002°53'612.1
2017-Sep-20 20:30N 49°60' W 002°44'711.7
2017-Sep-20 19:56N 50°01' W 002°33'2011.4
2017-Sep-20 18:10N 49°59' W 002°02'212.6
2017-Sep-20 18:00N 49°59' W 001°59'713.1
2017-Sep-20 17:30N 49°56' W 001°50'713.7
2017-Sep-20 17:00N 49°54' W 001°40'715.0
2017-Sep-20 16:30N 49°51' W 001°29'816.1
2017-Sep-20 16:01N 49°48' W 001°17'816.8
2017-Sep-20 15:30N 49°46' W 001°05'2516.5
2017-Sep-20 13:58N 49°36' W 000°29'715.9
2017-Sep-20 13:30N 49°33' W 000°18'815.8
2017-Sep-20 13:00N 49°31' W 000°07'816.7
2017-Sep-20 12:30N 49°29' E 000°06'3 5.8
2017-Sep-20 12:00N 49°29' E 000°10'0 0.0
2017-Sep-20 11:28N 49°29' E 000°10'1 2.0
2017-Sep-20 10:59N 49°28' E 000°12'0 0.0
2017-Sep-20 10:29N 49°28' E 000°12'0 0.0
2017-Sep-20 09:59N 49°28' E 000°12'0 0.0
2017-Sep-20 09:29N 49°28' E 000°12'0 0.0
2017-Sep-20 08:59N 49°28' E 000°12'0 0.0
2017-Sep-20 08:29N 49°28' E 000°12'0 0.0
2017-Sep-20 07:59N 49°28' E 000°12'0 0.0
2017-Sep-20 07:29N 49°28' E 000°12'0 0.0
2017-Sep-20 06:59N 49°28' E 000°12'0 0.0
2017-Sep-20 06:29N 49°28' E 000°12'0 0.0
2017-Sep-20 05:59N 49°28' E 000°12'0 0.0
2017-Sep-20 05:29N 49°28' E 000°12'0 0.0
2017-Sep-20 04:59N 49°28' E 000°12'0 0.0
2017-Sep-20 04:29N 49°28' E 000°12'0 0.0
2017-Sep-20 03:58N 49°28' E 000°12'0 0.0
2017-Sep-20 03:28N 49°28' E 000°12'0 0.0
2017-Sep-20 02:58N 49°28' E 000°12'0 0.0
2017-Sep-20 02:28N 49°28' E 000°12'0 0.0
2017-Sep-20 01:59N 49°28' E 000°12'0 0.0
2017-Sep-20 01:30N 49°28' E 000°12'1 1.9
2017-Sep-20 01:00N 49°29' E 000°10'0 0.1
2017-Sep-20 00:30N 49°29' E 000°10'3 6.3
2017-Sep-20 00:01N 49°29' E 000°06'815.3
2017-Sep-19 23:30N 49°31' W 000°06'5613.7
2017-Sep-19 19:24N 50°21' W 000°46'513.5
2017-Sep-19 19:00N 50°26' W 000°50'714.1
2017-Sep-19 18:30N 50°32' W 000°54'713.6
2017-Sep-19 18:00N 50°39' W 000°59'713.7
2017-Sep-19 17:31N 50°44' W 001°05'510.8
2017-Sep-19 17:00N 50°46' W 001°13'611.5
2017-Sep-19 16:30N 50°50' W 001°19'6 9.4
2017-Sep-19 15:54N 50°54' W 001°25'0 0.5
2017-Sep-19 15:31N 50°54' W 001°26'0 0.0
2017-Sep-19 14:58N 50°54' W 001°26'0 0.0
2017-Sep-19 14:30N 50°54' W 001°26'0 0.0
2017-Sep-19 14:01N 50°54' W 001°26'0 0.0
2017-Sep-19 13:24N 50°54' W 001°26'0 0.0
2017-Sep-19 13:00N 50°54' W 001°26'0 0.0
2017-Sep-19 12:30N 50°54' W 001°26'0 0.0
2017-Sep-19 12:00N 50°54' W 001°26'0 0.0
2017-Sep-19 11:18N 50°54' W 001°26'0 0.0
2017-Sep-19 10:57N 50°54' W 001°26'0 0.0
2017-Sep-19 10:30N 50°54' W 001°26'0 0.0
2017-Sep-19 09:57N 50°54' W 001°26'0 0.1
2017-Sep-19 09:30N 50°54' W 001°26'1 0.4
2017-Sep-19 06:12N 50°53' W 001°24'0 0.0
2017-Sep-19 05:54N 50°53' W 001°24'0 0.1
2017-Sep-19 05:28N 50°53' W 001°24'1 2.3
2017-Sep-19 05:00N 50°52' W 001°23'510.5
2017-Sep-19 04:31N 50°49' W 001°17'5 9.9
2017-Sep-19 04:01N 50°46' W 001°11'510.3
2017-Sep-19 03:31N 50°44' W 001°03'713.5
2017-Sep-19 03:00N 50°40' W 000°55'5 9.1
2017-Sep-19 02:30N 50°38' W 000°48'5 9.4
2017-Sep-19 02:00N 50°37' W 000°41'5 9.8
2017-Sep-19 01:30N 50°36' W 000°33'510.2
2017-Sep-19 01:00N 50°35' W 000°25'510.2
2017-Sep-19 00:30N 50°34' W 000°17'510.0
2017-Sep-19 00:00N 50°33' W 000°10'510.7
2017-Sep-18 23:30N 50°32' W 000°01'713.7
2017-Sep-18 23:00N 50°34' E 000°09'713.5
2017-Sep-18 22:30N 50°36' E 000°19'612.8
2017-Sep-18 22:00N 50°38' E 000°29'612.7
2017-Sep-18 21:30N 50°41' E 000°38'612.6
2017-Sep-18 21:00N 50°44' E 000°46'612.4
2017-Sep-18 20:30N 50°47' E 000°54'612.6
2017-Sep-18 20:00N 50°51' E 001°03'713.3
2017-Sep-18 19:30N 50°55' E 001°11'714.4
2017-Sep-18 19:00N 50°60' E 001°20'815.6
2017-Sep-18 18:30N 51°05' E 001°29'816.2
2017-Sep-18 18:00N 51°10' E 001°39'815.5
2017-Sep-18 17:30N 51°15' E 001°48'715.0
2017-Sep-18 17:00N 51°21' E 001°55'611.7
2017-Sep-18 16:30N 51°24' E 002°03'713.2
2017-Sep-18 16:00N 51°21' E 002°13'612.4
2017-Sep-18 15:30N 51°21' E 002°23'712.8
2017-Sep-18 14:58N 51°23' E 002°34'612.5
2017-Sep-18 14:30N 51°22' E 002°43'713.6
2017-Sep-18 14:00N 51°23' E 002°54'815.5
2017-Sep-18 13:31N 51°24' E 003°06'612.0
2017-Sep-18 13:00N 51°20' E 003°13'0 0.0
2017-Sep-18 12:30N 51°20' E 003°13'1 1.2
2017-Sep-18 12:00N 51°19' E 003°13'0 0.1
2017-Sep-18 11:27N 51°19' E 003°13'0 0.0
2017-Sep-18 11:00N 51°19' E 003°13'0 0.0
2017-Sep-18 10:30N 51°19' E 003°13'0 0.0
2017-Sep-18 10:00N 51°19' E 003°13'0 0.0
2017-Sep-18 09:30N 51°19' E 003°13'0 0.0
2017-Sep-18 09:00N 51°19' E 003°13'0 0.0
2017-Sep-18 08:30N 51°19' E 003°13'0 0.0
2017-Sep-18 08:00N 51°19' E 003°13'0 0.0
2017-Sep-18 07:30N 51°19' E 003°13'0 0.0
2017-Sep-18 07:00N 51°19' E 003°13'0 0.0
2017-Sep-18 06:30N 51°19' E 003°13'0 0.0
2017-Sep-18 06:00N 51°19' E 003°13'0 0.0
2017-Sep-18 05:30N 51°19' E 003°13'0 0.0
2017-Sep-18 05:00N 51°19' E 003°13'0 0.0
2017-Sep-18 04:30N 51°19' E 003°13'0 0.0
2017-Sep-18 04:00N 51°19' E 003°13'0 0.0
2017-Sep-18 03:30N 51°19' E 003°13'0 0.0
2017-Sep-18 03:00N 51°19' E 003°13'0 0.2
2017-Sep-18 02:30N 51°19' E 003°13'1 1.4
2017-Sep-18 02:00N 51°20' E 003°13'0 0.3
2017-Sep-18 01:30N 51°20' E 003°13'5 9.3
2017-Sep-18 01:01N 51°24' E 003°08'815.9
2017-Sep-18 00:30N 51°22' E 002°55'815.0
2017-Sep-18 00:01N 51°22' E 002°43'815.1
2017-Sep-17 23:30N 51°22' E 002°31'714.3
2017-Sep-17 23:00N 51°19' E 002°21'714.7
2017-Sep-17 22:30N 51°15' E 002°11'714.8
2017-Sep-17 22:00N 51°11' E 002°01'815.2
2017-Sep-17 21:31N 51°08' E 001°50'815.5
2017-Sep-17 21:01N 51°03' E 001°41'815.4
2017-Sep-17 20:30N 50°57' E 001°33'10012.5
2017-Sep-17 12:32N 50°09' W 000°45'111.0
2017-Sep-17 12:29N 50°09' W 000°46'510.7
2017-Sep-17 12:00N 50°08' W 000°54'510.6
2017-Sep-17 11:30N 50°06' W 001°02'510.4
2017-Sep-17 11:00N 50°05' W 001°09'510.5
2017-Sep-17 10:30N 50°04' W 001°17'510.9
2017-Sep-17 10:00N 50°02' W 001°26'611.5
2017-Sep-17 09:30N 50°01' W 001°34'612.1
2017-Sep-17 09:00N 49°59' W 001°43'612.8
2017-Sep-17 08:30N 49°58' W 001°53'713.5
2017-Sep-17 08:00N 49°56' W 002°03'714.3
2017-Sep-17 07:30N 49°55' W 002°14'1914.5
2017-Sep-17 06:13N 49°49' W 002°42'314.6
2017-Sep-17 06:00N 49°49' W 002°46'2214.5
2017-Sep-17 04:31N 49°38' W 003°15'014.5
2017-Sep-17 04:30N 49°38' W 003°16'7714.2
2017-Sep-16 23:07N 48°59' W 004°58'213.9
2017-Sep-16 22:59N 48°59' W 005°00'713.5
2017-Sep-16 22:30N 48°55' W 005°09'613.0
2017-Sep-16 22:00N 48°52' W 005°18'612.7
2017-Sep-16 21:30N 48°49' W 005°26'1911.9
2017-Sep-16 19:54N 48°34' W 005°44'715.6
2017-Sep-16 19:29N 48°28' W 005°39'2315.4
2017-Sep-16 18:01N 48°08' W 005°24'015.1
2017-Sep-16 18:00N 48°08' W 005°24'915.4
2017-Sep-16 17:23N 47°59' W 005°17'615.3
2017-Sep-16 17:00N 47°54' W 005°14'815.3
2017-Sep-16 16:30N 47°47' W 005°08'815.9
2017-Sep-16 16:00N 47°40' W 005°03'  
Track history (hours):
 
Tides and Currents Weather Stations Pressure Air Temp Water Temp Dewpoint Dewpoint Depression Visibility Wind Speed Wind Dir Waves Ship Positions

Autoprogress

Last reported at 2017-Sep-26 11:00 UTC. Time now 2017-Sep-26 11:16 UTC.
Position N 50°54' W 001°25'.

Length 125 m; draft 5.6 m.

Type: Cargo ship. MMSI: 255801570.

Date/timePositionNaut miles runAvg speedWind from/ knotsBaromVisibWave heightAir tempDewpointWater temp
2017-Sep-26 11:00N 50°54' W 001°25'0 0.0
2017-Sep-26 10:30N 50°54' W 001°25'0 0.0
2017-Sep-26 10:00N 50°54' W 001°25'0 0.0
2017-Sep-26 09:30N 50°54' W 001°25'0 0.0
2017-Sep-26 09:00N 50°54' W 001°25'1 0.4
2017-Sep-26 05:54N 50°53' W 001°24'0 0.0
2017-Sep-26 05:24N 50°53' W 001°24'0 1.2
2017-Sep-26 05:00N 50°53' W 001°24'3 6.3
2017-Sep-26 04:30N 50°51' W 001°20'510.7
2017-Sep-26 04:00N 50°47' W 001°14'815.2
2017-Sep-26 03:30N 50°44' W 001°03'714.1
2017-Sep-26 03:00N 50°40' W 000°54'612.3
2017-Sep-26 02:30N 50°38' W 000°45'612.5
2017-Sep-26 02:00N 50°37' W 000°35'612.8
2017-Sep-26 01:31N 50°36' W 000°25'612.2
2017-Sep-26 01:00N 50°34' W 000°16'612.5
2017-Sep-26 00:31N 50°33' W 000°06'612.6
2017-Sep-26 00:00N 50°33' E 000°04'612.6
2017-Sep-25 23:31N 50°35' E 000°13'612.3
2017-Sep-25 23:00N 50°36' E 000°23'612.6
2017-Sep-25 22:30N 50°38' E 000°32'612.9
2017-Sep-25 22:00N 50°40' E 000°41'713.7
2017-Sep-25 21:31N 50°44' E 000°50'714.4
2017-Sep-25 21:00N 50°48' E 000°60'714.7
2017-Sep-25 20:30N 50°54' E 001°08'714.7
2017-Sep-25 20:01N 50°59' E 001°16'714.4
2017-Sep-25 19:31N 51°03' E 001°25'714.5
2017-Sep-25 19:00N 51°08' E 001°34'713.6
2017-Sep-25 18:31N 51°12' E 001°43'713.2
2017-Sep-25 18:00N 51°17' E 001°50'612.8
2017-Sep-25 17:31N 51°22' E 001°56'510.7
2017-Sep-25 17:01N 51°24' E 002°04'713.7
2017-Sep-25 16:30N 51°21' E 002°14'612.0
2017-Sep-25 16:00N 51°22' E 002°24'612.5
2017-Sep-25 15:30N 51°23' E 002°33'612.3
2017-Sep-25 15:00N 51°22' E 002°43'713.7
2017-Sep-25 14:31N 51°23' E 002°54'815.2
2017-Sep-25 14:00N 51°24' E 003°06'611.8
2017-Sep-25 13:30N 51°20' E 003°13'0 0.0
2017-Sep-25 13:01N 51°20' E 003°13'0 0.0
2017-Sep-25 12:31N 51°20' E 003°13'1 1.6
2017-Sep-25 12:00N 51°19' E 003°13'0 0.3
2017-Sep-25 11:27N 51°19' E 003°13'0 0.0
2017-Sep-25 11:00N 51°19' E 003°13'0 0.0
2017-Sep-25 10:30N 51°19' E 003°13'0 0.0
2017-Sep-25 10:00N 51°19' E 003°13'0 0.0
2017-Sep-25 09:30N 51°19' E 003°13'0 0.0
2017-Sep-25 09:00N 51°19' E 003°13'0 0.0
2017-Sep-25 08:30N 51°19' E 003°13'0 0.0
2017-Sep-25 08:00N 51°19' E 003°13'0 0.0
2017-Sep-25 07:30N 51°19' E 003°13'0 0.0
2017-Sep-25 07:00N 51°19' E 003°13'0 0.0
2017-Sep-25 06:30N 51°19' E 003°13'0 0.0
2017-Sep-25 06:00N 51°19' E 003°13'0 0.0
2017-Sep-25 05:30N 51°19' E 003°13'0 0.0
2017-Sep-25 05:00N 51°19' E 003°13'0 0.0
2017-Sep-25 04:30N 51°19' E 003°13'0 0.0
2017-Sep-25 04:00N 51°19' E 003°13'0 0.0
2017-Sep-25 03:30N 51°19' E 003°13'0 0.0
2017-Sep-25 03:00N 51°19' E 003°13'1 1.0
2017-Sep-25 02:30N 51°19' E 003°13'1 2.0
2017-Sep-25 02:00N 51°20' E 003°13'1 1.6
2017-Sep-25 01:30N 51°21' E 003°12'713.3
2017-Sep-25 01:00N 51°24' E 003°03'816.1
2017-Sep-25 00:30N 51°22' E 002°51'611.3
2017-Sep-25 00:00N 51°22' E 002°42'815.8
2017-Sep-24 23:30N 51°21' E 002°29'815.1
2017-Sep-24 23:00N 51°18' E 002°18'611.6
2017-Sep-24 22:30N 51°15' E 002°10'611.5
2017-Sep-24 22:00N 51°12' E 002°02'611.4
2017-Sep-24 21:30N 51°09' E 001°54'611.3
2017-Sep-24 21:00N 51°06' E 001°47'611.2
2017-Sep-24 20:30N 51°02' E 001°41'510.1
2017-Sep-24 20:00N 50°58' E 001°35'611.5
2017-Sep-24 19:30N 50°54' E 001°30'612.3
2017-Sep-24 19:00N 50°48' E 001°26'612.7
2017-Sep-24 18:29N 50°42' E 001°22'612.5
2017-Sep-24 18:00N 50°38' E 001°15'712.9
2017-Sep-24 17:29N 50°34' E 001°07'612.9
2017-Sep-24 16:59N 50°31' E 000°58'612.6
2017-Sep-24 16:29N 50°29' E 000°49'612.6
2017-Sep-24 16:00N 50°27' E 000°39'612.5
2017-Sep-24 15:30N 50°25' E 000°30'612.5
2017-Sep-24 15:00N 50°23' E 000°21'612.6
2017-Sep-24 14:30N 50°21' E 000°12'612.7
2017-Sep-24 14:00N 50°19' E 000°02'10915.2
2017-Sep-24 06:50N 49°49' W 002°41'614.2
2017-Sep-24 06:26N 49°48' W 002°49'912.8
2017-Sep-24 05:46N 49°45' W 003°01'413.1
2017-Sep-24 05:29N 49°43' W 003°06'1012.9
2017-Sep-24 04:43N 49°37' W 003°19'312.9
2017-Sep-24 04:29N 49°36' W 003°23'812.7
2017-Sep-24 03:52N 49°32' W 003°34'512.5
2017-Sep-24 03:28N 49°30' W 003°41'612.4
2017-Sep-24 03:00N 49°26' W 003°48'3911.9
2017-Sep-23 23:42N 49°07' W 004°40'511.6
2017-Sep-23 23:18N 49°05' W 004°46'1111.9
2017-Sep-23 22:24N 48°59' W 005°01'712.2
2017-Sep-23 21:48N 48°56' W 005°10'412.9
2017-Sep-23 21:29N 48°54' W 005°16'713.2
2017-Sep-23 20:59N 48°50' W 005°24'713.3
2017-Sep-23 20:26N 48°46' W 005°34'  
2017-Sep-21 12:45N 47°30' W 005°03'514.8
2017-Sep-21 12:26N 47°34' W 005°06'613.9
2017-Sep-21 12:00N 47°39' W 005°10'10510.9
2017-Sep-21 02:23N 49°22' W 004°34'613.0
2017-Sep-21 01:57N 49°24' W 004°27'613.7
2017-Sep-21 01:30N 49°27' W 004°19'714.3
2017-Sep-21 01:00N 49°31' W 004°09'714.8
2017-Sep-21 00:31N 49°35' W 003°60'815.0
2017-Sep-21 00:00N 49°39' W 003°50'715.0
2017-Sep-20 23:31N 49°42' W 003°39'714.6
2017-Sep-20 23:01N 49°46' W 003°29'714.3
2017-Sep-20 22:31N 49°49' W 003°20'713.7
2017-Sep-20 22:00N 49°53' W 003°11'713.1
2017-Sep-20 21:30N 49°56' W 003°01'612.4
2017-Sep-20 21:00N 49°58' W 002°53'612.1
2017-Sep-20 20:30N 49°60' W 002°44'711.7
2017-Sep-20 19:56N 50°01' W 002°33'2011.4
2017-Sep-20 18:10N 49°59' W 002°02'212.6
2017-Sep-20 18:00N 49°59' W 001°59'713.1
2017-Sep-20 17:30N 49°56' W 001°50'713.7
2017-Sep-20 17:00N 49°54' W 001°40'715.0
2017-Sep-20 16:30N 49°51' W 001°29'816.1
2017-Sep-20 16:01N 49°48' W 001°17'816.8
2017-Sep-20 15:30N 49°46' W 001°05'2516.5
2017-Sep-20 13:58N 49°36' W 000°29'715.9
2017-Sep-20 13:30N 49°33' W 000°18'815.8
2017-Sep-20 13:00N 49°31' W 000°07'816.7
2017-Sep-20 12:30N 49°29' E 000°06'3 5.8
2017-Sep-20 12:00N 49°29' E 000°10'0 0.0
2017-Sep-20 11:28N 49°29' E 000°10'1 2.0
2017-Sep-20 10:59N 49°28' E 000°12'0 0.0
2017-Sep-20 10:29N 49°28' E 000°12'0 0.0
2017-Sep-20 09:59N 49°28' E 000°12'0 0.0
2017-Sep-20 09:29N 49°28' E 000°12'0 0.0
2017-Sep-20 08:59N 49°28' E 000°12'0 0.0
2017-Sep-20 08:29N 49°28' E 000°12'0 0.0
2017-Sep-20 07:59N 49°28' E 000°12'0 0.0
2017-Sep-20 07:29N 49°28' E 000°12'0 0.0
2017-Sep-20 06:59N 49°28' E 000°12'0 0.0
2017-Sep-20 06:29N 49°28' E 000°12'0 0.0
2017-Sep-20 05:59N 49°28' E 000°12'0 0.0
2017-Sep-20 05:29N 49°28' E 000°12'0 0.0
2017-Sep-20 04:59N 49°28' E 000°12'0 0.0
2017-Sep-20 04:29N 49°28' E 000°12'0 0.0
2017-Sep-20 03:58N 49°28' E 000°12'0 0.0
2017-Sep-20 03:28N 49°28' E 000°12'0 0.0
2017-Sep-20 02:58N 49°28' E 000°12'0 0.0
2017-Sep-20 02:28N 49°28' E 000°12'0 0.0
2017-Sep-20 01:59N 49°28' E 000°12'0 0.0
2017-Sep-20 01:30N 49°28' E 000°12'1 1.9
2017-Sep-20 01:00N 49°29' E 000°10'0 0.1
2017-Sep-20 00:30N 49°29' E 000°10'3 6.3
2017-Sep-20 00:01N 49°29' E 000°06'815.3
2017-Sep-19 23:30N 49°31' W 000°06'5613.7
2017-Sep-19 19:24N 50°21' W 000°46'513.5
2017-Sep-19 19:00N 50°26' W 000°50'714.1
2017-Sep-19 18:30N 50°32' W 000°54'713.6
2017-Sep-19 18:00N 50°39' W 000°59'713.7
2017-Sep-19 17:31N 50°44' W 001°05'510.8
2017-Sep-19 17:00N 50°46' W 001°13'611.5
2017-Sep-19 16:30N 50°50' W 001°19'6 9.4
2017-Sep-19 15:54N 50°54' W 001°25'0 0.5
2017-Sep-19 15:31N 50°54' W 001°26'0 0.0
2017-Sep-19 14:58N 50°54' W 001°26'0 0.0
2017-Sep-19 14:30N 50°54' W 001°26'0 0.0
2017-Sep-19 14:01N 50°54' W 001°26'0 0.0
2017-Sep-19 13:24N 50°54' W 001°26'0 0.0
2017-Sep-19 13:00N 50°54' W 001°26'0 0.0
2017-Sep-19 12:30N 50°54' W 001°26'0 0.0
2017-Sep-19 12:00N 50°54' W 001°26'0 0.0
2017-Sep-19 11:18N 50°54' W 001°26'0 0.0
2017-Sep-19 10:57N 50°54' W 001°26'0 0.0
2017-Sep-19 10:30N 50°54' W 001°26'0 0.0
2017-Sep-19 09:57N 50°54' W 001°26'0 0.1
2017-Sep-19 09:30N 50°54' W 001°26'1 0.4
2017-Sep-19 06:12N 50°53' W 001°24'0 0.0
2017-Sep-19 05:54N 50°53' W 001°24'0 0.1
2017-Sep-19 05:28N 50°53' W 001°24'1 2.3
2017-Sep-19 05:00N 50°52' W 001°23'510.5
2017-Sep-19 04:31N 50°49' W 001°17'5 9.9
2017-Sep-19 04:01N 50°46' W 001°11'510.3
2017-Sep-19 03:31N 50°44' W 001°03'713.5
2017-Sep-19 03:00N 50°40' W 000°55'5 9.1
2017-Sep-19 02:30N 50°38' W 000°48'5 9.4
2017-Sep-19 02:00N 50°37' W 000°41'5 9.8
2017-Sep-19 01:30N 50°36' W 000°33'510.2
2017-Sep-19 01:00N 50°35' W 000°25'510.2
2017-Sep-19 00:30N 50°34' W 000°17'510.0
2017-Sep-19 00:00N 50°33' W 000°10'510.7
2017-Sep-18 23:30N 50°32' W 000°01'713.7
2017-Sep-18 23:00N 50°34' E 000°09'713.5
2017-Sep-18 22:30N 50°36' E 000°19'612.8
2017-Sep-18 22:00N 50°38' E 000°29'612.7
2017-Sep-18 21:30N 50°41' E 000°38'612.6
2017-Sep-18 21:00N 50°44' E 000°46'612.4
2017-Sep-18 20:30N 50°47' E 000°54'612.6
2017-Sep-18 20:00N 50°51' E 001°03'713.3
2017-Sep-18 19:30N 50°55' E 001°11'714.4
2017-Sep-18 19:00N 50°60' E 001°20'815.6
2017-Sep-18 18:30N 51°05' E 001°29'816.2
2017-Sep-18 18:00N 51°10' E 001°39'815.5
2017-Sep-18 17:30N 51°15' E 001°48'715.0
2017-Sep-18 17:00N 51°21' E 001°55'611.7
2017-Sep-18 16:30N 51°24' E 002°03'713.2
2017-Sep-18 16:00N 51°21' E 002°13'612.4
2017-Sep-18 15:30N 51°21' E 002°23'712.8
2017-Sep-18 14:58N 51°23' E 002°34'612.5
2017-Sep-18 14:30N 51°22' E 002°43'713.6
2017-Sep-18 14:00N 51°23' E 002°54'815.5
2017-Sep-18 13:31N 51°24' E 003°06'612.0
2017-Sep-18 13:00N 51°20' E 003°13'0 0.0
2017-Sep-18 12:30N 51°20' E 003°13'1 1.2
2017-Sep-18 12:00N 51°19' E 003°13'0 0.1
2017-Sep-18 11:27N 51°19' E 003°13'0 0.0
2017-Sep-18 11:00N 51°19' E 003°13'0 0.0
2017-Sep-18 10:30N 51°19' E 003°13'0 0.0
2017-Sep-18 10:00N 51°19' E 003°13'0 0.0
2017-Sep-18 09:30N 51°19' E 003°13'0 0.0
2017-Sep-18 09:00N 51°19' E 003°13'0 0.0
2017-Sep-18 08:30N 51°19' E 003°13'0 0.0
2017-Sep-18 08:00N 51°19' E 003°13'0 0.0
2017-Sep-18 07:30N 51°19' E 003°13'0 0.0
2017-Sep-18 07:00N 51°19' E 003°13'0 0.0
2017-Sep-18 06:30N 51°19' E 003°13'0 0.0
2017-Sep-18 06:00N 51°19' E 003°13'0 0.0
2017-Sep-18 05:30N 51°19' E 003°13'0 0.0
2017-Sep-18 05:00N 51°19' E 003°13'0 0.0
2017-Sep-18 04:30N 51°19' E 003°13'0 0.0
2017-Sep-18 04:00N 51°19' E 003°13'0 0.0
2017-Sep-18 03:30N 51°19' E 003°13'0 0.0
2017-Sep-18 03:00N 51°19' E 003°13'0 0.2
2017-Sep-18 02:30N 51°19' E 003°13'1 1.4
2017-Sep-18 02:00N 51°20' E 003°13'0 0.3
2017-Sep-18 01:30N 51°20' E 003°13'5 9.3
2017-Sep-18 01:01N 51°24' E 003°08'815.9
2017-Sep-18 00:30N 51°22' E 002°55'815.0
2017-Sep-18 00:01N 51°22' E 002°43'815.1
2017-Sep-17 23:30N 51°22' E 002°31'714.3
2017-Sep-17 23:00N 51°19' E 002°21'714.7
2017-Sep-17 22:30N 51°15' E 002°11'714.8
2017-Sep-17 22:00N 51°11' E 002°01'815.2
2017-Sep-17 21:31N 51°08' E 001°50'815.5
2017-Sep-17 21:01N 51°03' E 001°41'815.4
2017-Sep-17 20:30N 50°57' E 001°33'10012.5
2017-Sep-17 12:32N 50°09' W 000°45'111.0
2017-Sep-17 12:29N 50°09' W 000°46'510.7
2017-Sep-17 12:00N 50°08' W 000°54'510.6
2017-Sep-17 11:30N 50°06' W 001°02'510.4
2017-Sep-17 11:00N 50°05' W 001°09'510.5
2017-Sep-17 10:30N 50°04' W 001°17'510.9
2017-Sep-17 10:00N 50°02' W 001°26'611.5
2017-Sep-17 09:30N 50°01' W 001°34'612.1
2017-Sep-17 09:00N 49°59' W 001°43'612.8
2017-Sep-17 08:30N 49°58' W 001°53'713.5
2017-Sep-17 08:00N 49°56' W 002°03'714.3
2017-Sep-17 07:30N 49°55' W 002°14'1914.5
2017-Sep-17 06:13N 49°49' W 002°42'314.6
2017-Sep-17 06:00N 49°49' W 002°46'2214.5
2017-Sep-17 04:31N 49°38' W 003°15'014.5
2017-Sep-17 04:30N 49°38' W 003°16'7714.2
2017-Sep-16 23:07N 48°59' W 004°58'213.9
2017-Sep-16 22:59N 48°59' W 005°00'713.5
2017-Sep-16 22:30N 48°55' W 005°09'613.0
2017-Sep-16 22:00N 48°52' W 005°18'612.7
2017-Sep-16 21:30N 48°49' W 005°26'1911.9
2017-Sep-16 19:54N 48°34' W 005°44'715.6
2017-Sep-16 19:29N 48°28' W 005°39'2315.4
2017-Sep-16 18:01N 48°08' W 005°24'015.1
2017-Sep-16 18:00N 48°08' W 005°24'915.4
2017-Sep-16 17:23N 47°59' W 005°17'615.3
2017-Sep-16 17:00N 47°54' W 005°14'815.3
2017-Sep-16 16:30N 47°47' W 005°08'815.9
2017-Sep-16 16:00N 47°40' W 005°03'  

Dump ship's entire track history